Time;durP1;ratioP1;P1;durP2;ratioP2;P2;SDS_P1;SDS_P2;PMS_P1;PMS_P2;Temp;Humidity;BMP_temperature;BMP_pressure;BME280_temperature;BME280_humidity;BME280_pressure;Samples;Min_cycle;Max_cycle;Signal;HPM_P1;HPM_P2
2020/12/01 09:56:40;;;;;;;3.60;2.28;;;18.70;66.10;;;;;;5081802;28;20403;-48
2020/12/01 10:35:23;;;;;;;1.70;1.60;;;18.90;66.30;;;;;;5078112;28;20487;-47
2020/12/01 10:37:51;;;;;;;3.50;1.65;;;19.00;66.40;;;;;;5082008;28;20082;-49
2020/12/01 10:40:16;;;;;;;1.67;1.58;;;19.00;66.00;;;;;;5067251;28;20042;-48
2020/12/01 10:42:42;;;;;;;1.75;1.48;;;19.00;65.90;;;;;;5082569;28;20047;-50
2020/12/01 10:45:08;;;;;;;1.85;1.48;;;19.00;65.70;;;;;;5069449;28;20863;-52
2020/12/01 10:47:33;;;;;;;2.53;1.58;;;19.00;65.90;;;;;;5077585;28;20051;-43
2020/12/01 10:49:59;;;;;;;2.42;1.63;;;19.00;65.60;;;;;;5070909;28;20041;-48
2020/12/01 10:52:24;;;;;;;1.40;1.20;;;19.10;65.80;;;;;;5077500;28;20051;-50
2020/12/01 10:54:50;;;;;;;3.13;2.05;;;19.10;66.10;;;;;;5085611;28;20044;-54
2020/12/01 10:57:15;;;;;;;2.55;2.15;;;19.10;65.40;;;;;;5068757;28;20520;-52
2020/12/01 10:59:41;;;;;;;2.28;1.63;;;19.10;65.70;;;;;;5071480;28;20052;-52
2020/12/01 11:02:07;;;;;;;7.88;2.08;;;19.10;65.80;;;;;;5067880;28;20614;-52
2020/12/01 11:04:32;;;;;;;4.00;2.25;;;19.10;65.60;;;;;;5059080;28;20573;-52
2020/12/01 11:06:58;;;;;;;1.85;1.75;;;19.20;65.40;;;;;;5060967;28;20044;-53
2020/12/01 11:09:23;;;;;;;3.03;2.30;;;19.20;65.10;;;;;;5055732;28;20099;-52
2020/12/01 11:11:49;;;;;;;3.38;2.63;;;19.10;64.60;;;;;;5058032;28;20045;-53
2020/12/01 11:14:15;;;;;;;4.25;1.80;;;19.10;65.30;;;;;;5054573;28;20162;-53
2020/12/01 11:16:40;;;;;;;3.58;2.13;;;19.10;65.30;;;;;;5055142;28;20482;-52
2020/12/01 11:19:06;;;;;;;2.30;2.10;;;19.20;65.40;;;;;;5057793;28;20467;-52
2020/12/01 11:21:35;;;;;;;3.35;2.40;;;19.10;65.30;;;;;;5069343;28;20040;-51
2020/12/01 11:24:01;;;;;;;2.33;2.10;;;19.10;64.80;;;;;;5057006;28;20415;-52
2020/12/01 11:26:27;;;;;;;3.78;1.90;;;19.20;64.20;;;;;;5056983;28;20067;-53
2020/12/01 11:28:53;;;;;;;2.25;1.98;;;19.20;64.00;;;;;;5061640;28;20068;-52
2020/12/01 11:31:19;;;;;;;8.38;2.97;;;19.20;64.80;;;;;;5052627;28;20033;-52
2020/12/01 11:33:55;;;;;;;4.97;1.77;;;19.20;64.90;;;;;;5062727;28;20056;-52
2020/12/01 11:36:21;;;;;;;3.70;1.65;;;19.20;64.80;;;;;;5065986;28;20140;-54
2020/12/01 11:38:47;;;;;;;2.47;2.10;;;19.20;64.70;;;;;;5061949;28;20094;-55
2020/12/01 11:41:14;;;;;;;2.30;2.10;;;19.20;65.00;;;;;;5054085;28;20041;-55
2020/12/01 11:43:40;;;;;;;6.65;1.80;;;19.20;65.00;;;;;;5064673;28;20128;-54
2020/12/01 11:46:06;;;;;;;7.28;2.35;;;19.20;64.80;;;;;;5054235;28;20152;-54
2020/12/01 11:48:31;;;;;;;3.65;1.85;;;19.20;65.00;;;;;;5054767;28;20099;-53
2020/12/01 11:50:57;;;;;;;3.15;1.85;;;19.20;65.10;;;;;;5056116;28;20121;-52
2020/12/01 11:53:22;;;;;;;3.20;1.92;;;19.20;65.20;;;;;;5057168;28;20041;-54
2020/12/01 11:55:48;;;;;;;5.47;2.45;;;19.20;65.00;;;;;;5054547;28;20072;-54
2020/12/01 11:58:13;;;;;;;2.92;1.63;;;19.20;65.40;;;;;;5051728;28;20154;-53
2020/12/01 12:00:39;;;;;;;2.25;1.88;;;19.20;65.20;;;;;;5061820;28;20053;-51
2020/12/01 12:03:05;;;;;;;1.70;1.60;;;19.30;65.20;;;;;;5056498;28;20515;-54
2020/12/01 12:05:30;;;;;;;2.67;1.60;;;19.30;65.50;;;;;;5058521;28;20078;-52
2020/12/01 12:07:56;;;;;;;2.15;1.40;;;19.20;65.30;;;;;;5065536;28;20041;-55
2020/12/01 12:10:21;;;;;;;2.30;1.60;;;19.20;65.20;;;;;;5055446;28;20173;-51
2020/12/01 12:12:48;;;;;;;2.90;1.80;;;19.20;65.30;;;;;;4716948;28;9999806;-52
2020/12/01 12:15:14;;;;;;;3.35;1.58;;;19.30;65.40;;;;;;5064416;28;20040;-49
2020/12/01 12:17:39;;;;;;;1.90;1.70;;;19.30;65.20;;;;;;5065952;28;20518;-52
2020/12/01 12:20:05;;;;;;;2.47;1.50;;;19.30;65.30;;;;;;5064813;28;20045;-52
2020/12/01 12:22:30;;;;;;;4.47;1.45;;;19.30;65.40;;;;;;5065169;28;20066;-54
2020/12/01 12:24:56;;;;;;;3.05;1.40;;;19.30;65.50;;;;;;5067331;28;20032;-53
2020/12/01 12:27:22;;;;;;;1.83;1.33;;;19.30;65.40;;;;;;5065224;28;20535;-50
2020/12/01 12:29:47;;;;;;;4.82;1.52;;;19.30;65.90;;;;;;5052616;28;20049;-54
2020/12/01 12:32:13;;;;;;;5.88;1.40;;;19.30;65.60;;;;;;5041522;28;20049;-54
2020/12/01 12:34:39;;;;;;;4.75;2.03;;;19.30;65.80;;;;;;5052509;28;20041;-54
2020/12/01 12:37:04;;;;;;;5.05;1.40;;;19.30;66.60;;;;;;5047897;28;20045;-54
2020/12/01 12:39:30;;;;;;;6.07;1.30;;;19.30;66.00;;;;;;5028255;28;20056;-45
2020/12/01 12:41:55;;;;;;;6.70;1.60;;;19.30;65.90;;;;;;5045345;28;20053;-53
2020/12/01 12:44:21;;;;;;;5.88;1.45;;;19.30;65.90;;;;;;5048620;28;20530;-47
2020/12/01 12:46:47;;;;;;;4.55;1.98;;;19.30;66.00;;;;;;5048642;28;20048;-54
2020/12/01 12:49:12;;;;;;;8.73;1.52;;;19.40;66.10;;;;;;5053873;28;20070;-51
2020/12/01 12:51:38;;;;;;;9.23;1.63;;;19.40;66.10;;;;;;5062786;28;20052;-50
2020/12/01 12:54:03;;;;;;;3.53;1.33;;;19.40;66.20;;;;;;5053888;28;20053;-53
2020/12/01 12:56:29;;;;;;;2.58;1.17;;;19.40;66.40;;;;;;5052453;28;20048;-48
2020/12/01 12:58:55;;;;;;;4.82;1.58;;;19.40;66.60;;;;;;5052878;28;20056;-49
2020/12/01 13:01:20;;;;;;;4.88;1.95;;;19.30;66.60;;;;;;5050732;28;20056;-51
2020/12/01 13:03:46;;;;;;;2.28;1.45;;;19.30;66.60;;;;;;5051735;28;20128;-48
2020/12/01 13:06:12;;;;;;;3.70;1.33;;;19.30;66.60;;;;;;5054336;28;20393;-48
2020/12/01 13:08:37;;;;;;;1.88;1.20;;;19.30;66.50;;;;;;5054582;28;20566;-48
2020/12/01 13:11:03;;;;;;;2.05;1.10;;;19.30;66.70;;;;;;5051320;28;20045;-48
2020/12/01 13:13:29;;;;;;;2.72;1.17;;;19.30;66.90;;;;;;5052223;28;20480;-48
2020/12/01 13:15:54;;;;;;;3.55;1.30;;;19.30;66.80;;;;;;5050687;28;20051;-53
2020/12/01 13:18:20;;;;;;;3.15;1.48;;;19.30;66.80;;;;;;5057722;28;20054;-52
2020/12/01 13:20:45;;;;;;;2.05;1.13;;;19.30;66.90;;;;;;5043149;28;20397;-51
2020/12/01 13:23:11;;;;;;;1.33;0.90;;;19.30;66.90;;;;;;5051239;28;20064;-51
2020/12/01 13:25:37;;;;;;;4.60;1.23;;;19.30;67.00;;;;;;5052231;28;20044;-48
2020/12/01 13:28:03;;;;;;;4.03;1.13;;;19.30;66.90;;;;;;5048838;28;20618;-49
2020/12/01 13:30:28;;;;;;;3.70;1.02;;;19.30;66.90;;;;;;5052800;28;20123;-52
2020/12/01 13:32:54;;;;;;;2.35;1.10;;;19.30;66.70;;;;;;5051698;28;20045;-46
2020/12/01 13:35:20;;;;;;;3.45;1.15;;;19.40;66.80;;;;;;5053923;28;20534;-48
2020/12/01 13:37:45;;;;;;;1.98;1.48;;;19.30;66.70;;;;;;5051726;28;20044;-47
2020/12/01 13:40:13;;;;;;;3.70;1.50;;;19.40;66.50;;;;;;5048782;28;20041;-51
2020/12/01 13:42:38;;;;;;;2.22;0.73;;;19.40;66.60;;;;;;5067761;28;20434;-52
2020/12/01 13:45:05;;;;;;;1.50;1.10;;;19.40;66.50;;;;;;5053903;28;20048;-48
2020/12/01 13:47:32;;;;;;;2.90;0.98;;;19.40;66.60;;;;;;5053996;28;20048;-49
2020/12/01 13:49:58;;;;;;;1.67;1.20;;;19.40;66.50;;;;;;5057888;28;20037;-50
2020/12/01 13:52:25;;;;;;;1.45;1.20;;;19.30;66.60;;;;;;5050270;28;20346;-49
2020/12/01 13:54:51;;;;;;;1.27;0.98;;;19.40;66.60;;;;;;5050140;28;20152;-51
2020/12/01 13:57:17;;;;;;;1.60;0.82;;;19.40;66.40;;;;;;5051888;28;20583;-48
2020/12/01 13:59:42;;;;;;;2.67;1.15;;;19.40;66.10;;;;;;5042380;28;20048;-52
2020/12/01 14:02:08;;;;;;;2.15;0.82;;;19.40;65.90;;;;;;5044041;28;20098;-51
2020/12/01 14:04:33;;;;;;;1.58;0.93;;;19.40;66.20;;;;;;5044524;28;20044;-52
2020/12/01 14:06:59;;;;;;;0.88;0.70;;;19.40;66.10;;;;;;5049136;28;20045;-52
2020/12/01 14:09:25;;;;;;;2.65;1.05;;;19.40;66.10;;;;;;5054004;28;20499;-50
2020/12/01 14:11:52;;;;;;;1.33;1.08;;;19.40;66.00;;;;;;5051512;28;20055;-48
2020/12/01 14:14:18;;;;;;;3.03;0.88;;;19.50;65.90;;;;;;5055832;28;20068;-51
2020/12/01 14:16:43;;;;;;;3.97;1.48;;;19.40;66.00;;;;;;5058925;28;20044;-51
2020/12/01 14:19:09;;;;;;;1.30;1.00;;;19.40;65.70;;;;;;5063639;28;20040;-49
2020/12/01 14:21:35;;;;;;;1.77;0.85;;;19.40;65.70;;;;;;5062327;28;20048;-49
2020/12/01 14:24:01;;;;;;;1.67;0.93;;;19.40;65.90;;;;;;5066040;28;20045;-53
2020/12/01 14:26:27;;;;;;;2.30;0.90;;;19.40;65.90;;;;;;5065472;28;20068;-50
2020/12/01 14:28:53;;;;;;;2.70;1.00;;;19.40;65.70;;;;;;5066444;28;20120;-54
2020/12/01 14:31:21;;;;;;;1.67;1.15;;;19.40;65.70;;;;;;5065057;28;20197;-51
2020/12/01 14:33:47;;;;;;;3.95;1.40;;;19.40;65.40;;;;;;5065776;28;20044;-46
2020/12/01 14:36:14;;;;;;;5.80;1.48;;;19.40;65.30;;;;;;5061379;28;20389;-46
2020/12/01 14:38:39;;;;;;;5.43;1.30;;;19.40;65.00;;;;;;5077936;28;20074;-46
2020/12/01 14:41:05;;;;;;;3.08;1.23;;;19.40;64.80;;;;;;5065458;28;20123;-46
2020/12/01 14:43:31;;;;;;;1.48;1.02;;;19.40;65.20;;;;;;5045274;28;20048;-47
2020/12/01 14:45:57;;;;;;;1.73;1.08;;;19.40;65.00;;;;;;5055102;28;20071;-47
2020/12/01 14:48:50;;;;;;;4.63;1.42;;;19.40;64.90;;;;;;5055192;28;20418;-46
2020/12/01 14:51:38;;;;;;;1.52;1.23;;;19.40;64.90;;;;;;5048086;28;20048;-47
2020/12/01 14:54:12;;;;;;;3.22;1.50;;;19.40;64.90;;;;;;5068428;28;20052;-47
2020/12/01 14:57:03;;;;;;;3.13;1.50;;;19.40;64.70;;;;;;5059703;28;20121;-47
2020/12/01 14:59:32;;;;;;;3.40;1.30;;;19.40;64.60;;;;;;5081885;28;20048;-46
2020/12/01 15:02:28;;;;;;;6.18;1.23;;;19.40;64.80;;;;;;5068399;28;20033;-49
2020/12/01 15:05:12;;;;;;;1.73;1.00;;;19.40;65.00;;;;;;5059750;28;20048;-48
2020/12/01 15:08:15;;;;;;;1.10;1.00;;;19.40;65.00;;;;;;5060697;28;20403;-49
2020/12/01 15:10:59;;;;;;;3.45;1.48;;;19.40;65.00;;;;;;5060432;28;20052;-48
2020/12/01 15:13:26;;;;;;;2.97;1.80;;;19.40;65.10;;;;;;5067339;28;20503;-47
2020/12/01 15:15:52;;;;;;;2.78;1.35;;;19.40;65.20;;;;;;5080238;28;22321;-47
2020/12/01 15:18:19;;;;;;;2.40;1.20;;;19.40;65.40;;;;;;5066526;28;20048;-47
2020/12/01 15:20:45;;;;;;;2.80;1.60;;;19.40;65.40;;;;;;5061420;28;20048;-46
2020/12/01 15:23:30;;;;;;;6.10;1.42;;;19.40;65.90;;;;;;5065784;28;20040;-46
2020/12/01 15:25:55;;;;;;;3.50;1.42;;;19.30;65.70;;;;;;5065336;28;20542;-46
2020/12/01 15:28:25;;;;;;;4.72;1.42;;;19.30;65.80;;;;;;5083662;28;20048;-47
2020/12/01 15:30:50;;;;;;;4.55;1.45;;;19.40;66.30;;;;;;5059840;28;20036;-47
2020/12/01 15:33:18;;;;;;;2.25;1.20;;;19.40;66.20;;;;;;5065037;28;20515;-46
2020/12/01 15:35:45;;;;;;;12.40;1.27;;;19.40;66.20;;;;;;5047767;28;20102;-47
2020/12/01 15:38:18;;;;;;;2.47;1.65;;;19.40;66.10;;;;;;5061425;28;20131;-46
2020/12/01 15:41:03;;;;;;;7.50;1.08;;;19.40;66.10;;;;;;5062424;28;20135;-46
2020/12/01 15:43:30;;;;;;;3.67;1.60;;;19.40;66.10;;;;;;5066539;28;20040;-47
2020/12/01 15:45:57;;;;;;;2.85;1.10;;;19.50;66.70;;;;;;5067764;28;20090;-48
2020/12/01 15:48:24;;;;;;;2.15;1.00;;;19.50;66.20;;;;;;5065501;28;20106;-46
2020/12/01 15:51:42;;;;;;;2.70;1.10;;;19.50;66.10;;;;;;5063423;28;20092;-48
2020/12/01 15:54:25;;;;;;;1.80;1.52;;;19.50;66.40;;;;;;5035751;28;20049;-47
2020/12/01 15:56:51;;;;;;;2.13;1.05;;;19.40;66.40;;;;;;5039909;28;20037;-46
2020/12/01 15:59:56;;;;;;;1.65;1.15;;;19.50;66.60;;;;;;5043521;28;20658;-44
2020/12/01 16:02:34;;;;;;;2.35;1.33;;;19.40;66.50;;;;;;5041744;28;20037;-46
2020/12/01 16:05:27;;;;;;;2.40;1.30;;;19.50;66.70;;;;;;5061543;28;20044;-46
2020/12/01 16:08:05;;;;;;;4.32;1.65;;;19.50;66.70;;;;;;5063891;28;20063;-47
2020/12/01 16:10:33;;;;;;;3.70;1.45;;;19.50;66.80;;;;;;5065926;28;20064;-47
2020/12/01 16:13:36;;;;;;;2.35;1.48;;;19.50;66.70;;;;;;5064380;28;20048;-42
2020/12/01 16:16:19;;;;;;;2.38;1.17;;;19.50;66.70;;;;;;5059938;28;20130;-48
2020/12/01 16:19:04;;;;;;;3.72;1.55;;;19.60;66.60;;;;;;5059098;28;20051;-48
2020/12/01 16:21:38;;;;;;;5.22;1.10;;;19.60;66.50;;;;;;5063328;28;20506;-46
2020/12/01 16:24:09;;;;;;;1.15;0.93;;;19.60;66.50;;;;;;5063619;28;20090;-46
2020/12/01 16:26:46;;;;;;;2.05;1.25;;;19.60;66.30;;;;;;5077230;28;20041;-45
2020/12/01 16:29:15;;;;;;;2.75;1.08;;;19.60;66.10;;;;;;5054584;28;20041;-49
2020/12/01 16:31:41;;;;;;;6.72;1.23;;;19.60;66.20;;;;;;5046296;28;20040;-50
2020/12/01 16:34:09;;;;;;;1.42;1.23;;;19.60;66.10;;;;;;5061756;28;20058;-49
2020/12/01 16:36:57;;;;;;;4.97;1.35;;;19.60;66.30;;;;;;5062639;28;20411;-49
2020/12/01 16:39:23;;;;;;;11.07;1.10;;;19.60;67.10;;;;;;5061629;28;20048;-45
2020/12/01 16:41:48;;;;;;;3.80;1.02;;;19.60;66.20;;;;;;5077394;28;20044;-48
2020/12/01 16:44:28;;;;;;;3.05;0.98;;;19.60;66.10;;;;;;5078576;28;20052;-48
2020/12/01 16:47:20;;;;;;;2.38;1.10;;;19.60;66.10;;;;;;5074571;28;20041;-48
2020/12/01 16:50:13;;;;;;;2.70;1.33;;;19.60;66.10;;;;;;5056786;28;20121;-49
2020/12/01 16:53:07;;;;;;;5.28;0.90;;;19.60;66.10;;;;;;5046300;28;20070;-49
2020/12/01 16:55:51;;;;;;;1.20;1.10;;;19.60;66.10;;;;;;5041414;28;20436;-50
2020/12/01 16:58:25;;;;;;;1.65;1.15;;;19.60;66.20;;;;;;5056639;28;20497;-55
2020/12/01 17:00:52;;;;;;;1.50;1.40;;;19.60;66.20;;;;;;5051664;28;20173;-48
2020/12/01 17:03:32;;;;;;;2.50;1.13;;;19.60;66.10;;;;;;5057027;28;20124;-54
2020/12/01 17:06:25;;;;;;;3.38;1.02;;;19.50;66.20;;;;;;5050224;28;20044;-52
2020/12/01 17:08:51;;;;;;;2.25;1.15;;;19.60;66.30;;;;;;5056613;28;20395;-56
2020/12/01 17:11:17;;;;;;;1.20;1.10;;;19.50;66.10;;;;;;5057932;28;20037;-52
2020/12/01 17:14:17;;;;;;;3.63;1.27;;;19.50;66.00;;;;;;5061054;28;20140;-50
2020/12/01 17:17:30;;;;;;;3.03;1.33;;;19.50;66.10;;;;;;5036070;28;20048;-54
2020/12/01 17:19:55;;;;;;;6.53;2.00;;;19.50;66.00;;;;;;4985867;28;20668;-51
2020/12/01 17:22:21;;;;;;;3.45;2.60;;;19.60;66.00;;;;;;5002550;28;20134;-54
2020/12/01 17:24:49;;;;;;;8.88;3.25;;;19.60;66.10;;;;;;4995385;28;20205;-54
2020/12/01 17:27:15;;;;;;;5.32;3.10;;;19.60;65.90;;;;;;4961653;28;20037;-48
2020/12/01 17:29:46;;;;;;;7.85;3.53;;;19.60;65.90;;;;;;4650747;28;10000109;-54
2020/12/01 17:32:33;;;;;;;9.85;3.50;;;19.60;65.80;;;;;;4984382;28;20116;-53
2020/12/01 17:35:16;;;;;;;8.98;3.50;;;19.60;65.80;;;;;;4986633;28;20042;-56
2020/12/01 17:37:56;;;;;;;6.93;3.70;;;19.60;65.50;;;;;;4996400;28;20188;-55
2020/12/01 17:40:34;;;;;;;6.50;3.60;;;19.60;65.30;;;;;;5002644;28;20038;-56
2020/12/01 17:43:39;;;;;;;4.90;3.05;;;19.60;65.30;;;;;;4985955;28;20046;-57
2020/12/01 17:46:20;;;;;;;6.68;2.83;;;19.60;65.30;;;;;;4932973;29;20055;-54
2020/12/01 17:48:48;;;;;;;4.63;3.13;;;19.60;66.00;;;;;;4916510;28;20043;-55
2020/12/01 17:51:42;;;;;;;3.60;2.83;;;19.60;65.80;;;;;;4943710;28;20168;-56
2020/12/01 17:54:21;;;;;;;7.10;3.28;;;19.60;65.70;;;;;;4967859;28;20054;-56
2020/12/01 17:56:52;;;;;;;7.60;3.53;;;19.50;65.60;;;;;;5003999;28;20077;-52
2020/12/01 17:59:26;;;;;;;7.28;3.38;;;19.60;65.80;;;;;;5003448;28;20049;-51
2020/12/01 18:01:52;;;;;;;6.25;2.97;;;19.60;65.80;;;;;;4998971;28;20460;-56
2020/12/01 18:04:18;;;;;;;4.03;3.22;;;19.50;65.70;;;;;;4984073;28;20092;-56
2020/12/01 18:06:44;;;;;;;4.35;3.40;;;19.50;65.60;;;;;;5004990;28;20073;-53
2020/12/01 18:09:14;;;;;;;5.72;3.10;;;19.50;65.70;;;;;;5003866;28;20124;-55
2020/12/01 18:11:45;;;;;;;5.68;4.30;;;19.50;65.40;;;;;;5002756;28;20078;-55
2020/12/01 18:14:14;;;;;;;4.53;2.90;;;19.60;65.60;;;;;;5005167;28;20045;-52
2020/12/01 18:17:04;;;;;;;5.88;3.30;;;19.50;65.60;;;;;;4973114;28;20050;-53
2020/12/01 18:19:54;;;;;;;5.32;3.38;;;19.50;65.50;;;;;;5004550;28;20050;-54
2020/12/01 18:22:37;;;;;;;4.80;3.45;;;19.50;65.40;;;;;;5006260;28;20062;-56
2020/12/01 18:25:29;;;;;;;6.60;3.40;;;19.50;65.30;;;;;;5026377;28;20049;-55
2020/12/01 18:27:55;;;;;;;5.75;3.40;;;19.50;65.30;;;;;;5048909;28;20415;-53
2020/12/01 18:30:30;;;;;;;5.00;3.30;;;19.50;65.10;;;;;;5077025;28;20053;-56
2020/12/01 18:33:27;;;;;;;5.97;3.20;;;19.50;65.10;;;;;;5080298;28;20136;-55
2020/12/01 18:35:52;;;;;;;6.20;3.05;;;19.50;65.10;;;;;;5063393;28;20110;-54
2020/12/01 18:38:37;;;;;;;4.30;2.95;;;19.50;65.30;;;;;;5064978;28;20134;-56
2020/12/01 18:41:07;;;;;;;10.23;3.58;;;19.50;65.50;;;;;;5029046;28;20049;-57
2020/12/01 18:43:40;;;;;;;3.47;3.17;;;19.50;65.50;;;;;;5027746;28;20041;-55
2020/12/01 18:46:07;;;;;;;8.32;3.28;;;19.50;65.30;;;;;;5082383;28;20056;-41
2020/12/01 18:48:33;;;;;;;4.50;3.17;;;19.50;65.10;;;;;;5059701;28;20147;-43
2020/12/01 18:50:59;;;;;;;3.97;3.03;;;19.50;65.00;;;;;;5049285;28;20059;-41
2020/12/01 18:53:26;;;;;;;5.60;3.50;;;19.50;65.00;;;;;;5042639;28;20048;-41
2020/12/01 18:55:54;;;;;;;29.55;13.13;;;19.50;64.70;;;;;;5064117;28;20045;-38
2020/12/01 18:58:24;;;;;;;17.70;11.13;;;19.50;64.90;;;;;;5054703;28;20373;-41
2020/12/01 19:00:51;;;;;;;12.77;6.03;;;19.60;65.00;;;;;;5065680;28;20049;-44
2020/12/01 19:03:30;;;;;;;9.63;6.10;;;19.60;64.90;;;;;;5062025;28;20071;-42
2020/12/01 19:05:58;;;;;;;17.00;6.55;;;19.60;64.80;;;;;;5044960;28;20519;-42
2020/12/01 19:08:24;;;;;;;18.63;9.02;;;19.60;64.90;;;;;;5062878;28;20050;-44
2020/12/01 19:10:50;;;;;;;17.52;7.80;;;19.70;64.80;;;;;;5063671;28;20044;-44
2020/12/01 19:13:16;;;;;;;16.70;8.18;;;19.70;64.80;;;;;;5066560;28;20423;-44
2020/12/01 19:15:42;;;;;;;13.75;7.22;;;19.70;64.60;;;;;;5063805;28;20499;-43
2020/12/01 19:18:08;;;;;;;13.82;7.95;;;19.70;64.60;;;;;;5060640;28;20135;-39
2020/12/01 19:20:34;;;;;;;17.33;9.10;;;19.70;64.50;;;;;;5059501;28;20040;-41
2020/12/01 19:22:59;;;;;;;13.57;8.55;;;19.70;64.60;;;;;;5056058;28;20045;-46
2020/12/01 19:25:25;;;;;;;11.10;8.05;;;19.70;64.50;;;;;;5050401;28;20578;-49
2020/12/01 19:27:51;;;;;;;19.65;6.82;;;19.70;64.40;;;;;;5064857;28;20057;-48
2020/12/01 19:30:17;;;;;;;27.23;15.13;;;19.70;64.50;;;;;;5065534;28;20131;-48
2020/12/01 19:32:44;;;;;;;155.55;82.80;;;19.70;64.50;;;;;;5061041;28;20419;-42
2020/12/01 19:35:09;;;;;;;129.43;75.85;;;19.70;64.70;;;;;;5064131;28;20047;-46
2020/12/01 19:37:36;;;;;;;116.47;62.88;;;19.70;64.70;;;;;;5062763;28;20048;-47
2020/12/01 19:40:03;;;;;;;122.90;68.70;;;19.70;64.70;;;;;;5062335;28;20531;-47
2020/12/01 19:42:28;;;;;;;129.93;73.40;;;19.80;64.60;;;;;;5063066;28;20048;-44
2020/12/01 19:44:54;;;;;;;120.00;69.30;;;19.80;64.50;;;;;;5062739;28;20041;-44
2020/12/01 19:47:20;;;;;;;113.75;66.63;;;19.80;64.40;;;;;;5061569;28;20070;-48
2020/12/01 19:49:46;;;;;;;123.82;68.30;;;19.80;64.30;;;;;;5059701;28;20048;-48
2020/12/01 19:52:12;;;;;;;104.57;56.95;;;19.80;64.40;;;;;;5060465;28;20135;-47
2020/12/01 19:54:38;;;;;;;93.68;54.30;;;19.80;64.20;;;;;;5034660;28;20136;-40
2020/12/01 19:57:04;;;;;;;88.55;50.53;;;19.80;64.20;;;;;;5049489;28;20048;-48
2020/12/01 19:59:30;;;;;;;92.82;53.60;;;19.70;64.10;;;;;;5057442;28;20617;-46
2020/12/01 20:01:55;;;;;;;96.00;54.30;;;19.80;64.00;;;;;;5056000;28;20045;-43
2020/12/01 20:04:21;;;;;;;94.68;52.60;;;19.80;63.90;;;;;;5054153;28;20106;-44
2020/12/01 20:06:48;;;;;;;90.18;49.55;;;19.90;63.90;;;;;;5060254;28;20397;-46
2020/12/01 20:09:14;;;;;;;75.95;42.25;;;19.90;64.10;;;;;;5054343;28;20693;-40
2020/12/01 20:11:40;;;;;;;71.95;42.28;;;19.90;64.10;;;;;;5057957;28;20158;-45
2020/12/01 20:14:07;;;;;;;87.47;51.17;;;19.80;64.00;;;;;;5060280;28;20052;-45
2020/12/01 20:16:32;;;;;;;83.93;50.03;;;19.80;64.10;;;;;;5059241;28;20062;-42
2020/12/01 20:18:58;;;;;;;67.30;39.05;;;19.80;64.10;;;;;;5060265;28;20078;-46
2020/12/01 20:21:24;;;;;;;86.80;50.70;;;19.80;64.00;;;;;;5062422;28;20110;-42
2020/12/01 20:23:50;;;;;;;76.57;45.00;;;19.80;64.00;;;;;;5059443;28;20055;-44
2020/12/01 20:26:16;;;;;;;74.68;45.42;;;19.80;64.60;;;;;;5060145;28;20044;-37
2020/12/01 20:28:42;;;;;;;73.25;44.47;;;19.80;63.80;;;;;;5063807;28;20139;-48
2020/12/01 20:31:08;;;;;;;69.00;40.72;;;19.80;63.90;;;;;;5055921;28;20120;-48
2020/12/01 20:33:34;;;;;;;73.50;43.20;;;19.80;63.90;;;;;;5046199;28;20075;-47
2020/12/01 20:36:00;;;;;;;65.22;38.30;;;19.80;64.00;;;;;;5064776;28;20511;-49
2020/12/01 20:39:03;;;;;;;66.32;37.60;;;19.80;63.90;;;;;;5063776;28;20037;-44
2020/12/01 20:41:29;;;;;;;71.70;41.08;;;19.80;63.70;;;;;;5072317;28;20072;-48
2020/12/01 20:43:55;;;;;;;64.18;38.28;;;19.80;63.90;;;;;;5071283;28;20116;-48
2020/12/01 20:46:20;;;;;;;69.53;42.83;;;19.80;63.80;;;;;;5064803;28;20094;-45
2020/12/01 20:48:46;;;;;;;64.45;37.15;;;19.80;63.90;;;;;;5062756;28;20173;-43
2020/12/01 20:51:12;;;;;;;63.15;37.95;;;19.80;63.60;;;;;;5075983;28;20051;-35
2020/12/01 20:53:38;;;;;;;59.50;38.28;;;19.80;63.70;;;;;;5068295;28;20141;-53
2020/12/01 20:56:03;;;;;;;58.83;31.65;;;19.80;63.70;;;;;;5070169;28;20636;-49
2020/12/01 20:58:29;;;;;;;59.55;36.60;;;19.80;63.60;;;;;;5072945;28;20072;-48
2020/12/01 21:00:55;;;;;;;55.08;33.38;;;19.80;63.90;;;;;;5069739;28;20081;-48
2020/12/01 21:03:20;;;;;;;48.35;29.42;;;19.80;64.00;;;;;;5072874;28;20518;-43
2020/12/01 21:05:46;;;;;;;58.65;33.28;;;19.80;64.00;;;;;;5066899;28;20624;-47
2020/12/01 21:08:13;;;;;;;57.85;34.88;;;19.80;63.80;;;;;;5071514;28;20044;-51
2020/12/01 21:10:39;;;;;;;55.50;35.00;;;19.80;63.80;;;;;;5069128;28;20051;-47
2020/12/01 21:13:21;;;;;;;52.85;32.10;;;19.80;63.80;;;;;;5064173;28;20071;-46
2020/12/01 21:15:47;;;;;;;50.53;31.63;;;19.80;63.80;;;;;;5070399;28;20167;-44
2020/12/01 21:18:18;;;;;;;50.78;30.65;;;19.80;63.70;;;;;;5065539;28;20048;-44
2020/12/01 21:20:44;;;;;;;49.90;31.17;;;19.80;63.70;;;;;;5064839;28;20052;-45
2020/12/01 21:23:10;;;;;;;47.65;29.30;;;19.80;63.70;;;;;;5068901;28;20094;-45
2020/12/01 21:25:35;;;;;;;50.75;30.52;;;19.80;63.70;;;;;;5060088;28;20155;-46
2020/12/01 21:28:10;;;;;;;50.90;31.30;;;19.80;63.70;;;;;;5068278;28;20507;-41
2020/12/01 21:30:40;;;;;;;46.17;28.10;;;19.80;63.70;;;;;;5066494;28;20124;-43
2020/12/01 21:33:21;;;;;;;42.20;25.77;;;19.80;63.60;;;;;;5057498;28;20053;-45
2020/12/01 21:35:55;;;;;;;45.78;28.15;;;19.80;63.60;;;;;;5062172;28;20116;-43
2020/12/01 21:38:21;;;;;;;48.03;30.73;;;19.80;63.60;;;;;;5062355;28;20131;-46
2020/12/01 21:40:46;;;;;;;52.65;29.60;;;19.80;63.60;;;;;;5065554;28;20044;-44
2020/12/01 21:43:37;;;;;;;45.65;27.45;;;19.80;64.80;;;;;;5068138;28;20048;-46
2020/12/01 21:46:04;;;;;;;56.63;23.90;;;19.70;65.00;;;;;;5064464;28;20041;-45
2020/12/01 21:48:30;;;;;;;50.47;25.08;;;19.70;65.30;;;;;;5062311;28;20512;-44
2020/12/01 21:51:01;;;;;;;53.67;25.23;;;19.70;65.40;;;;;;5045672;28;20049;-46
2020/12/01 21:53:49;;;;;;;53.45;25.92;;;19.70;65.50;;;;;;5063624;28;20079;-47
2020/12/01 21:56:27;;;;;;;40.35;24.42;;;19.70;65.40;;;;;;5061182;28;20064;-49
2020/12/01 21:59:11;;;;;;;39.78;24.25;;;19.70;65.30;;;;;;5063253;28;20616;-47
2020/12/01 22:02:16;;;;;;;38.80;23.08;;;19.70;65.10;;;;;;5065643;28;20048;-47
2020/12/01 22:05:09;;;;;;;38.53;21.33;;;19.70;65.20;;;;;;5047678;28;20041;-46
2020/12/01 22:07:53;;;;;;;38.55;22.25;;;19.70;65.10;;;;;;5063565;28;20373;-46
2020/12/01 22:10:25;;;;;;;;;;;19.70;65.00;;;;;;5066490;28;20476;-47
2020/12/01 22:13:12;;;;;;;31.75;19.63;;;19.70;65.00;;;;;;5067829;28;19969;-46
2020/12/01 22:15:50;;;;;;;33.83;21.15;;;19.70;65.10;;;;;;5065559;28;20124;-44
2020/12/01 22:18:21;;;;;;;37.22;20.55;;;19.60;65.20;;;;;;5060296;28;20048;-46
2020/12/01 22:20:50;;;;;;;36.30;21.55;;;19.60;64.90;;;;;;5066892;28;20071;-43
2020/12/01 22:23:21;;;;;;;35.95;20.55;;;19.70;64.70;;;;;;5064470;28;20435;-45
2020/12/01 22:25:53;;;;;;;33.75;20.33;;;19.60;65.00;;;;;;5064578;28;20103;-46
2020/12/01 22:28:43;;;;;;;31.60;18.95;;;19.60;65.00;;;;;;5066614;28;20044;-45
2020/12/01 22:31:26;;;;;;;30.48;18.45;;;19.60;65.30;;;;;;5066806;28;20048;-46
2020/12/01 22:34:21;;;;;;;32.17;18.00;;;19.60;64.60;;;;;;5065665;28;20711;-47
2020/12/01 22:36:47;;;;;;;30.88;19.30;;;19.60;64.70;;;;;;5065675;28;20032;-47
2020/12/01 22:39:13;;;;;;;33.05;20.30;;;19.60;64.50;;;;;;5064866;28;20040;-45
2020/12/01 22:41:41;;;;;;;28.98;16.80;;;19.60;64.30;;;;;;5067736;28;20059;-46
2020/12/01 22:44:19;;;;;;;33.28;20.25;;;19.60;64.40;;;;;;5064903;28;20036;-46
2020/12/01 22:47:15;;;;;;;27.65;17.98;;;19.50;64.30;;;;;;5065535;28;20029;-44
2020/12/01 22:50:17;;;;;;;31.38;18.85;;;19.50;64.10;;;;;;5061380;28;20036;-43
2020/12/01 22:53:20;;;;;;;27.80;17.05;;;19.50;64.10;;;;;;5059221;28;20047;-42
2020/12/01 22:56:11;;;;;;;26.35;17.45;;;19.50;64.10;;;;;;5063522;28;20557;-46
2020/12/01 22:58:36;;;;;;;28.80;17.25;;;19.50;64.00;;;;;;5063638;28;20556;-46
2020/12/01 23:01:05;;;;;;;24.20;16.17;;;19.50;64.00;;;;;;5070392;28;20215;-39
2020/12/01 23:03:34;;;;;;;24.58;15.60;;;19.50;64.00;;;;;;5066246;28;20112;-43
2020/12/01 23:06:38;;;;;;;29.55;18.75;;;19.50;63.80;;;;;;5068372;28;20070;-47
2020/12/01 23:09:33;;;;;;;26.92;15.68;;;19.50;64.00;;;;;;5067283;28;20064;-47
2020/12/01 23:12:10;;;;;;;23.13;15.63;;;19.50;63.90;;;;;;5058658;28;20052;-45
2020/12/01 23:14:40;;;;;;;24.75;14.95;;;19.50;64.00;;;;;;5068425;28;20036;-48
2020/12/01 23:17:20;;;;;;;23.80;14.35;;;19.50;64.00;;;;;;5069101;28;20018;-43
2020/12/01 23:19:45;;;;;;;20.58;13.45;;;19.40;64.00;;;;;;5083131;28;20024;-45
2020/12/01 23:22:14;;;;;;;23.02;15.10;;;19.50;64.00;;;;;;5067295;28;20021;-44
2020/12/01 23:24:40;;;;;;;20.88;13.73;;;19.40;64.00;;;;;;5070639;28;20025;-44
2020/12/01 23:27:09;;;;;;;20.50;13.20;;;19.40;64.10;;;;;;5067959;28;20048;-44
